Time;durP1;ratioP1;P1;durP2;ratioP2;P2;SDS_P1;SDS_P2;PMS_P1;PMS_P2;Temp;Humidity;BMP_temperature;BMP_pressure;BME280_temperature;BME280_humidity;BME280_pressure;Samples;Min_cycle;Max_cycle;Signal;HPM_P1;HPM_P2
2022/10/22 00:02:19;;;;;;;0.35;0.10;;;25.00;57.20;;;;;;5048844;28;20472;-53
2022/10/22 00:04:47;;;;;;;3.40;0.10;;;25.00;57.20;;;;;;5047713;28;20037;-51
2022/10/22 00:07:14;;;;;;;0.30;0.10;;;25.00;57.20;;;;;;5049165;28;20051;-53
2022/10/22 00:09:43;;;;;;;0.52;0.10;;;25.00;57.10;;;;;;5048772;28;20076;-53
2022/10/22 00:12:10;;;;;;;0.25;0.10;;;25.00;57.10;;;;;;5063276;28;20040;-54
2022/10/22 00:14:37;;;;;;;2.17;0.10;;;25.00;57.10;;;;;;5059629;28;20057;-56
2022/10/22 00:17:04;;;;;;;0.47;0.15;;;24.90;57.00;;;;;;5048814;28;20045;-52
2022/10/22 00:19:32;;;;;;;2.22;0.32;;;24.90;57.00;;;;;;5048932;28;20045;-52
2022/10/22 00:21:59;;;;;;;0.50;0.45;;;24.90;56.90;;;;;;5049173;28;20037;-54
2022/10/22 00:24:26;;;;;;;1.23;0.00;;;24.90;56.90;;;;;;5048745;28;20048;-53
2022/10/22 00:26:54;;;;;;;2.42;0.10;;;24.90;57.00;;;;;;5048675;28;20045;-54
2022/10/22 00:29:21;;;;;;;0.40;0.00;;;24.90;57.00;;;;;;5047453;28;20528;-51
2022/10/22 00:31:50;;;;;;;1.35;0.10;;;24.90;57.00;;;;;;5048304;28;20068;-54
2022/10/22 00:34:18;;;;;;;1.90;0.10;;;24.90;57.00;;;;;;5048646;28;20052;-55
2022/10/22 00:36:46;;;;;;;0.13;0.00;;;24.90;57.10;;;;;;5048479;28;20056;-53
2022/10/22 00:39:15;;;;;;;2.65;0.00;;;24.90;57.10;;;;;;5048265;28;20124;-53
2022/10/22 00:41:42;;;;;;;0.52;0.10;;;24.90;57.10;;;;;;5048517;28;20139;-51
2022/10/22 00:44:42;;;;;;;0.93;0.00;;;24.90;57.00;;;;;;5048580;28;20057;-51
2022/10/22 00:47:10;;;;;;;5.15;0.00;;;24.90;56.90;;;;;;5048080;28;20144;-54
2022/10/22 00:49:37;;;;;;;5.03;0.10;;;24.80;56.90;;;;;;5048206;28;20494;-55
2022/10/22 00:52:05;;;;;;;1.33;0.10;;;24.80;56.90;;;;;;5048268;28;20512;-53
2022/10/22 00:54:33;;;;;;;3.03;0.63;;;24.80;56.80;;;;;;5039207;28;242625;-55
2022/10/22 00:57:00;;;;;;;0.80;0.10;;;24.80;56.80;;;;;;5047126;28;20701;-55
2022/10/22 00:59:28;;;;;;;3.33;0.82;;;24.80;56.70;;;;;;5049528;28;20052;-52
2022/10/22 01:01:55;;;;;;;1.75;0.10;;;24.80;56.70;;;;;;5048890;28;20079;-51
2022/10/22 01:04:23;;;;;;;1.35;0.05;;;24.80;56.60;;;;;;5049656;28;20045;-54
2022/10/22 01:06:51;;;;;;;1.27;0.00;;;24.80;56.70;;;;;;5039503;28;20047;-52
2022/10/22 01:09:29;;;;;;;0.68;0.03;;;24.80;56.60;;;;;;5039283;28;20412;-55
2022/10/22 01:12:03;;;;;;;2.88;0.10;;;24.80;56.60;;;;;;5048618;28;20152;-52
2022/10/22 01:14:36;;;;;;;5.22;0.10;;;24.80;56.60;;;;;;5049105;28;20055;-53
2022/10/22 01:17:08;;;;;;;1.10;0.10;;;24.80;56.50;;;;;;5049338;28;20539;-54
2022/10/22 01:20:01;;;;;;;1.15;0.10;;;24.70;56.50;;;;;;5048972;28;20041;-56
2022/10/22 01:22:32;;;;;;;0.95;0.10;;;24.70;56.40;;;;;;5048865;28;20095;-53
2022/10/22 01:25:08;;;;;;;1.35;0.00;;;24.70;56.50;;;;;;5048331;28;20068;-53
2022/10/22 01:27:46;;;;;;;0.55;0.10;;;24.70;56.30;;;;;;5048927;28;20047;-51
2022/10/22 01:30:15;;;;;;;0.80;0.00;;;24.70;56.30;;;;;;5048466;28;20133;-53
2022/10/22 01:32:48;;;;;;;3.13;0.10;;;24.70;56.30;;;;;;5048840;28;20044;-53
2022/10/22 01:35:20;;;;;;;3.22;0.22;;;24.70;56.30;;;;;;5048501;28;20128;-56
2022/10/22 01:37:52;;;;;;;0.10;0.00;;;24.70;56.30;;;;;;5048422;28;20076;-52
2022/10/22 01:40:21;;;;;;;1.45;0.10;;;24.70;56.30;;;;;;5048432;28;20040;-56
2022/10/22 01:42:58;;;;;;;0.90;0.65;;;24.70;56.20;;;;;;5048463;28;20037;-49
2022/10/22 01:45:28;;;;;;;1.75;0.10;;;24.70;56.20;;;;;;5048075;28;20073;-55
2022/10/22 01:48:08;;;;;;;1.23;0.10;;;24.60;56.20;;;;;;5048478;28;20543;-54
2022/10/22 01:50:47;;;;;;;1.13;0.63;;;24.70;56.20;;;;;;5048317;28;20926;-56
2022/10/22 01:53:22;;;;;;;2.85;0.10;;;24.70;56.20;;;;;;5048127;28;20041;-54
2022/10/22 01:56:04;;;;;;;0.50;0.32;;;24.70;56.20;;;;;;5048065;28;20053;-53
2022/10/22 01:58:41;;;;;;;0.60;0.25;;;24.60;56.00;;;;;;5047767;28;20045;-56
2022/10/22 02:01:18;;;;;;;0.10;0.00;;;24.60;56.10;;;;;;5046234;28;20052;-55
2022/10/22 02:03:49;;;;;;;0.98;0.00;;;24.60;56.00;;;;;;5048264;28;20506;-54
2022/10/22 02:06:20;;;;;;;0.20;0.03;;;24.60;56.10;;;;;;5047750;28;20048;-54
2022/10/22 02:08:49;;;;;;;3.28;0.10;;;24.60;56.10;;;;;;5047997;28;20494;-55
2022/10/22 02:11:16;;;;;;;0.60;0.20;;;24.60;56.00;;;;;;5047888;28;20500;-54
2022/10/22 02:13:46;;;;;;;8.35;0.68;;;24.60;56.00;;;;;;5047625;28;20127;-51
2022/10/22 02:16:18;;;;;;;1.67;0.13;;;24.60;55.90;;;;;;5047768;28;20048;-53
2022/10/22 02:18:49;;;;;;;0.10;0.00;;;24.60;55.90;;;;;;5047956;28;20608;-52
2022/10/22 02:21:16;;;;;;;0.63;0.00;;;24.60;55.80;;;;;;5047791;28;20055;-51
2022/10/22 02:23:45;;;;;;;1.17;0.10;;;24.60;55.70;;;;;;5080057;28;20048;-52
2022/10/22 02:26:20;;;;;;;2.70;0.03;;;24.60;55.70;;;;;;5047902;28;20069;-54
2022/10/22 02:28:55;;;;;;;0.70;0.27;;;24.60;55.60;;;;;;5047440;28;20052;-50
2022/10/22 02:31:27;;;;;;;1.23;0.00;;;24.60;55.70;;;;;;5047804;28;20299;-54
2022/10/22 02:33:57;;;;;;;0.75;0.10;;;24.60;55.60;;;;;;5048032;28;20044;-52
2022/10/22 02:36:25;;;;;;;0.70;0.10;;;24.60;55.60;;;;;;5047032;28;20063;-54
2022/10/22 02:38:53;;;;;;;1.77;0.20;;;24.60;55.50;;;;;;5047560;28;20051;-55
2022/10/22 02:41:20;;;;;;;2.85;0.10;;;24.60;55.50;;;;;;5047625;28;20128;-51
2022/10/22 02:43:51;;;;;;;0.88;0.35;;;24.60;55.50;;;;;;5047856;28;20045;-54
2022/10/22 02:46:18;;;;;;;0.40;0.00;;;24.60;55.40;;;;;;5047623;28;20041;-51
2022/10/22 02:48:46;;;;;;;0.70;0.30;;;24.60;55.40;;;;;;5047780;28;20045;-53
2022/10/22 02:51:13;;;;;;;1.73;0.30;;;24.60;55.30;;;;;;5046476;28;20063;-54
2022/10/22 02:53:41;;;;;;;0.60;0.00;;;24.60;55.30;;;;;;5047534;28;20041;-52
2022/10/22 02:56:08;;;;;;;0.47;0.00;;;24.60;55.30;;;;;;5047354;28;20471;-54
2022/10/22 02:58:35;;;;;;;1.50;0.15;;;24.60;55.20;;;;;;5047649;28;20041;-54
2022/10/22 03:01:02;;;;;;;1.70;0.65;;;24.50;55.20;;;;;;5046513;28;20051;-50
2022/10/22 03:03:29;;;;;;;1.15;0.10;;;24.60;55.20;;;;;;5044997;28;20047;-53
2022/10/22 03:05:57;;;;;;;2.47;0.10;;;24.50;55.20;;;;;;5045937;28;20102;-52
2022/10/22 03:08:24;;;;;;;2.08;0.40;;;24.50;55.20;;;;;;5047333;28;20063;-55
2022/10/22 03:10:51;;;;;;;0.10;0.00;;;24.50;55.10;;;;;;5047143;28;20107;-52
2022/10/22 03:13:18;;;;;;;3.17;0.60;;;24.50;55.10;;;;;;5047203;28;20579;-52
2022/10/22 03:15:48;;;;;;;0.82;0.10;;;24.50;55.00;;;;;;5046896;28;20136;-55
2022/10/22 03:18:15;;;;;;;3.28;0.08;;;24.50;55.10;;;;;;5047232;28;20041;-50
2022/10/22 03:20:42;;;;;;;0.93;0.10;;;24.50;55.10;;;;;;5047139;28;20033;-53
2022/10/22 03:23:11;;;;;;;0.28;0.08;;;24.50;55.10;;;;;;5046861;28;20458;-54
2022/10/22 03:25:41;;;;;;;0.93;0.00;;;24.50;55.10;;;;;;5046665;28;20037;-52
2022/10/22 03:28:10;;;;;;;1.75;0.50;;;24.50;55.00;;;;;;5045792;28;20116;-52
2022/10/22 03:30:37;;;;;;;0.85;0.10;;;24.50;55.00;;;;;;5047300;28;20402;-52
2022/10/22 03:33:04;;;;;;;2.60;0.08;;;24.50;55.00;;;;;;5047092;28;20041;-49
2022/10/22 03:35:32;;;;;;;3.72;0.10;;;24.50;55.00;;;;;;5047114;28;20095;-51
2022/10/22 03:38:00;;;;;;;1.50;0.00;;;24.40;54.90;;;;;;5046878;28;20507;-52
2022/10/22 03:40:29;;;;;;;1.45;0.10;;;24.40;54.90;;;;;;5046640;28;20083;-54
2022/10/22 03:42:56;;;;;;;0.10;0.10;;;24.40;54.90;;;;;;5046780;28;20556;-53
2022/10/22 03:45:23;;;;;;;0.20;0.10;;;24.40;54.90;;;;;;5047064;28;20033;-53
2022/10/22 03:47:50;;;;;;;2.70;0.10;;;24.40;55.00;;;;;;5049486;28;20037;-55
2022/10/22 03:50:17;;;;;;;1.33;0.30;;;24.40;54.90;;;;;;5050644;28;20080;-52
2022/10/22 03:52:44;;;;;;;3.10;0.05;;;24.40;54.80;;;;;;5050576;28;20103;-55
2022/10/22 03:55:11;;;;;;;0.65;0.10;;;24.40;55.50;;;;;;5050253;28;20049;-53
2022/10/22 03:57:39;;;;;;;0.10;0.10;;;24.40;54.90;;;;;;5050576;28;20124;-52
2022/10/22 04:00:08;;;;;;;6.57;0.30;;;24.50;55.50;;;;;;5049983;28;20707;-53
2022/10/22 04:02:37;;;;;;;3.92;0.40;;;24.40;54.90;;;;;;5049548;28;20144;-54
2022/10/22 04:05:05;;;;;;;1.25;0.00;;;24.40;54.90;;;;;;5049108;28;20055;-52
2022/10/22 04:07:32;;;;;;;3.30;0.13;;;24.40;55.00;;;;;;5048536;28;20037;-67
2022/10/22 04:09:59;;;;;;;1.30;0.10;;;24.40;54.90;;;;;;5049704;28;20763;-64
2022/10/22 04:12:26;;;;;;;1.27;0.10;;;24.40;55.00;;;;;;5052728;28;20037;-62
2022/10/22 04:14:54;;;;;;;2.88;0.20;;;24.40;55.10;;;;;;5049684;28;20437;-60
2022/10/22 04:17:21;;;;;;;0.88;0.63;;;24.40;55.10;;;;;;5050436;28;20045;-57
2022/10/22 04:19:48;;;;;;;2.60;0.28;;;24.40;55.00;;;;;;5051549;28;20565;-63
2022/10/22 04:22:15;;;;;;;3.50;0.73;;;24.40;55.10;;;;;;5050475;28;20524;-64
2022/10/22 04:24:42;;;;;;;0.82;0.10;;;24.50;55.10;;;;;;5050045;28;20052;-63
2022/10/22 04:27:09;;;;;;;1.30;0.20;;;24.50;55.10;;;;;;5050854;28;20056;-63
2022/10/22 04:29:36;;;;;;;1.85;0.10;;;24.50;55.00;;;;;;5049291;28;20051;-63
2022/10/22 04:32:05;;;;;;;1.33;0.22;;;24.50;55.00;;;;;;5048134;28;20510;-62
2022/10/22 04:34:32;;;;;;;2.63;0.10;;;24.60;55.10;;;;;;5049291;28;20413;-59
2022/10/22 04:36:59;;;;;;;1.90;0.00;;;24.60;55.10;;;;;;5056872;28;20052;-62
2022/10/22 04:39:26;;;;;;;2.13;0.30;;;24.60;55.10;;;;;;5056724;28;20051;-62
2022/10/22 04:41:53;;;;;;;3.33;0.10;;;24.50;55.10;;;;;;5061530;28;20492;-62
2022/10/22 04:44:20;;;;;;;5.85;0.52;;;24.50;55.10;;;;;;5050676;28;20401;-63
2022/10/22 04:46:47;;;;;;;1.35;0.10;;;24.40;55.10;;;;;;5050510;28;20037;-63
2022/10/22 04:49:15;;;;;;;1.05;0.20;;;24.40;55.10;;;;;;5051181;28;20505;-64
2022/10/22 04:51:42;;;;;;;1.45;0.10;;;24.40;55.10;;;;;;5063319;28;20409;-63
2022/10/22 04:54:09;;;;;;;1.33;0.10;;;24.40;55.10;;;;;;5058577;28;20060;-64
2022/10/22 04:56:36;;;;;;;2.10;0.10;;;24.40;55.20;;;;;;5055810;28;20045;-64
2022/10/22 04:59:06;;;;;;;2.28;0.10;;;24.30;55.10;;;;;;5048764;28;20052;-63
2022/10/22 05:01:35;;;;;;;0.68;0.10;;;24.40;55.20;;;;;;5053832;28;20065;-63
2022/10/22 05:04:03;;;;;;;0.50;0.10;;;24.30;55.20;;;;;;5048503;28;20118;-63
2022/10/22 05:06:34;;;;;;;0.20;0.20;;;24.30;55.20;;;;;;5051138;28;20049;-65
2022/10/22 05:09:04;;;;;;;1.02;0.20;;;24.30;55.20;;;;;;5050081;28;20045;-63
2022/10/22 05:11:33;;;;;;;3.45;0.20;;;24.30;55.50;;;;;;5064364;28;20594;-64
2022/10/22 05:14:01;;;;;;;3.05;0.00;;;24.30;55.60;;;;;;5057673;28;20547;-63
2022/10/22 05:16:29;;;;;;;4.65;0.50;;;24.30;55.60;;;;;;5048704;28;20508;-66
2022/10/22 05:18:58;;;;;;;0.65;0.55;;;24.30;55.70;;;;;;5058872;28;20501;-65
2022/10/22 05:21:26;;;;;;;2.00;0.10;;;24.30;55.60;;;;;;5049311;28;20036;-66
2022/10/22 05:23:56;;;;;;;2.55;0.47;;;24.30;55.70;;;;;;5060440;28;20472;-67
2022/10/22 05:26:23;;;;;;;2.97;0.32;;;24.30;55.60;;;;;;5049829;28;20055;-67
2022/10/22 05:28:51;;;;;;;1.65;0.30;;;24.30;55.70;;;;;;5049804;28;20091;-62
2022/10/22 05:31:19;;;;;;;2.08;0.32;;;24.30;55.60;;;;;;5052786;28;20068;-66
2022/10/22 05:33:47;;;;;;;2.60;0.10;;;24.30;56.10;;;;;;5050474;28;20037;-66
2022/10/22 05:36:15;;;;;;;0.70;0.10;;;24.30;56.10;;;;;;5049763;28;20045;-66
2022/10/22 05:38:42;;;;;;;4.00;0.10;;;24.30;56.10;;;;;;5045452;28;20037;-66
2022/10/22 05:41:13;;;;;;;2.20;0.10;;;24.30;56.00;;;;;;5064950;28;20080;-56
2022/10/22 05:43:40;;;;;;;2.15;0.25;;;24.30;56.10;;;;;;5054157;28;20044;-58
2022/10/22 05:46:09;;;;;;;1.45;0.20;;;24.30;56.10;;;;;;5058544;28;20045;-58
2022/10/22 05:48:36;;;;;;;0.90;0.10;;;24.30;56.10;;;;;;5051232;28;20049;-59
2022/10/22 05:51:04;;;;;;;7.32;0.15;;;24.30;56.10;;;;;;5047178;28;20044;-56
2022/10/22 05:53:32;;;;;;;1.45;0.10;;;24.30;56.50;;;;;;5063411;28;20057;-58
2022/10/22 05:56:01;;;;;;;6.22;0.77;;;24.30;56.60;;;;;;5050836;28;20053;-54
2022/10/22 05:58:30;;;;;;;3.17;0.40;;;24.30;56.90;;;;;;5053794;28;20144;-58
2022/10/22 06:01:02;;;;;;;10.07;0.32;;;24.30;57.40;;;;;;5064428;28;20047;-53
2022/10/22 06:03:30;;;;;;;5.75;0.20;;;24.30;57.90;;;;;;5067637;28;20049;-52
2022/10/22 06:06:00;;;;;;;1.52;0.17;;;24.40;58.60;;;;;;5053710;28;20464;-54
2022/10/22 06:08:27;;;;;;;6.93;0.38;;;24.40;58.80;;;;;;5047773;28;20660;-54
2022/10/22 06:10:55;;;;;;;6.35;0.10;;;24.40;58.80;;;;;;5047466;28;20489;-55
2022/10/22 06:13:22;;;;;;;4.60;0.30;;;24.40;58.80;;;;;;5048032;28;20072;-55
2022/10/22 06:15:52;;;;;;;5.30;0.20;;;24.40;58.80;;;;;;5047807;28;20049;-52
2022/10/22 06:18:19;;;;;;;8.60;0.10;;;24.40;58.90;;;;;;5047845;28;20871;-56
2022/10/22 06:20:46;;;;;;;1.92;0.15;;;24.40;58.90;;;;;;5047338;28;20051;-55
2022/10/22 06:23:14;;;;;;;2.83;0.20;;;24.40;58.80;;;;;;5050568;28;20116;-55
2022/10/22 06:25:42;;;;;;;0.90;0.22;;;24.40;58.80;;;;;;5047412;28;20061;-52
2022/10/22 06:28:09;;;;;;;2.65;0.20;;;24.40;58.70;;;;;;5047440;28;20037;-50
2022/10/22 06:30:37;;;;;;;8.70;0.22;;;24.40;58.70;;;;;;5047417;28;20036;-55
2022/10/22 06:33:06;;;;;;;6.88;0.40;;;24.40;58.60;;;;;;5047702;28;20118;-51
2022/10/22 06:35:33;;;;;;;3.47;0.20;;;24.40;58.50;;;;;;5046917;28;20041;-53
2022/10/22 06:38:00;;;;;;;1.95;0.30;;;24.30;58.40;;;;;;5047183;28;20053;-54
2022/10/22 06:40:27;;;;;;;2.97;0.50;;;24.30;58.30;;;;;;5047498;28;20041;-52
2022/10/22 06:42:54;;;;;;;3.22;0.38;;;24.30;58.30;;;;;;5047289;28;20425;-50
2022/10/22 06:45:21;;;;;;;4.80;0.20;;;24.30;58.20;;;;;;5047339;28;20517;-54
2022/10/22 06:47:48;;;;;;;3.35;0.20;;;24.30;58.10;;;;;;5047278;28;20094;-52
2022/10/22 06:50:16;;;;;;;5.68;0.45;;;24.30;58.10;;;;;;5046908;28;20048;-51
2022/10/22 06:52:44;;;;;;;3.35;0.52;;;24.30;58.00;;;;;;5046792;28;20116;-52
2022/10/22 06:55:11;;;;;;;1.15;0.15;;;24.20;57.90;;;;;;5046887;28;20052;-52
2022/10/22 06:57:38;;;;;;;2.42;0.38;;;24.20;57.90;;;;;;5047208;28;20061;-52
2022/10/22 07:00:06;;;;;;;4.95;0.10;;;24.20;57.80;;;;;;5047354;28;20051;-52
2022/10/22 07:02:33;;;;;;;0.90;0.10;;;24.20;57.70;;;;;;5046182;28;20636;-57
2022/10/22 07:05:00;;;;;;;3.22;0.38;;;24.20;57.70;;;;;;5047393;28;20052;-49
2022/10/22 07:07:28;;;;;;;6.40;1.75;;;24.20;57.60;;;;;;5045843;28;20769;-50
2022/10/22 07:09:55;;;;;;;1.75;0.40;;;24.10;57.50;;;;;;5047226;28;20045;-52
2022/10/22 07:12:22;;;;;;;3.15;0.22;;;24.10;57.40;;;;;;5047267;28;20077;-54
2022/10/22 07:14:50;;;;;;;2.45;0.20;;;24.10;57.30;;;;;;5042578;28;20034;-53
2022/10/22 07:17:17;;;;;;;6.30;0.70;;;24.10;57.20;;;;;;5029023;28;20592;-53
2022/10/22 07:19:44;;;;;;;1.85;0.10;;;24.10;57.20;;;;;;5045373;28;20120;-52
2022/10/22 07:22:11;;;;;;;2.97;0.10;;;24.10;57.10;;;;;;5048168;28;20037;-54
2022/10/22 07:24:39;;;;;;;0.77;0.20;;;24.10;57.10;;;;;;5050960;28;20048;-54
2022/10/22 07:27:06;;;;;;;3.20;0.20;;;24.00;57.10;;;;;;5050902;28;20128;-55
2022/10/22 07:29:33;;;;;;;7.95;0.85;;;24.00;57.00;;;;;;5050896;28;20045;-56
2022/10/22 07:32:00;;;;;;;2.75;0.20;;;24.00;57.00;;;;;;5050317;28;20124;-50
2022/10/22 07:34:27;;;;;;;2.63;0.52;;;24.00;57.00;;;;;;5050847;28;20043;-54
2022/10/22 07:36:56;;;;;;;2.60;0.20;;;24.00;57.00;;;;;;5050504;28;20386;-53
2022/10/22 07:39:24;;;;;;;1.33;0.20;;;24.00;57.00;;;;;;5050520;28;20505;-54
2022/10/22 07:41:53;;;;;;;0.65;0.15;;;24.00;57.00;;;;;;5050712;28;20060;-56
2022/10/22 07:44:20;;;;;;;2.88;0.15;;;24.00;56.90;;;;;;5050643;28;20037;-53
2022/10/22 07:46:47;;;;;;;2.40;0.10;;;23.90;56.80;;;;;;5050167;28;20049;-52
2022/10/22 07:49:14;;;;;;;2.20;0.28;;;23.90;56.80;;;;;;5050463;28;20378;-54
2022/10/22 07:51:41;;;;;;;1.92;0.25;;;23.90;56.80;;;;;;5049998;28;20033;-55
2022/10/22 07:54:08;;;;;;;4.63;0.80;;;23.90;56.70;;;;;;5050276;28;20041;-53
2022/10/22 07:56:35;;;;;;;3.33;0.17;;;23.90;56.70;;;;;;5050571;28;20150;-53
2022/10/22 07:59:03;;;;;;;1.65;0.45;;;23.90;56.60;;;;;;5050391;28;20053;-49
2022/10/22 08:01:30;;;;;;;3.33;0.60;;;23.90;56.60;;;;;;5050194;28;20045;-51
2022/10/22 08:03:57;;;;;;;1.75;0.30;;;23.90;56.50;;;;;;5050332;28;20569;-54
2022/10/22 08:06:24;;;;;;;2.90;0.73;;;23.90;56.50;;;;;;5050202;28;20072;-52
2022/10/22 08:08:51;;;;;;;2.03;0.40;;;23.90;56.50;;;;;;5049915;28;20037;-51
2022/10/22 08:11:18;;;;;;;0.35;0.10;;;23.90;56.40;;;;;;5050374;28;20040;-55
2022/10/22 08:13:45;;;;;;;2.92;0.10;;;23.90;56.30;;;;;;5049916;28;20047;-54
2022/10/22 08:16:14;;;;;;;2.38;0.22;;;23.90;56.20;;;;;;5049667;28;20037;-53
2022/10/22 08:18:41;;;;;;;1.70;0.10;;;23.90;56.20;;;;;;5050267;28;20036;-52
2022/10/22 08:21:08;;;;;;;2.67;0.20;;;23.90;56.20;;;;;;5050188;28;20067;-55
2022/10/22 08:23:35;;;;;;;0.75;0.17;;;23.90;56.10;;;;;;5049677;28;20052;-53
2022/10/22 08:26:02;;;;;;;4.85;0.38;;;23.90;56.00;;;;;;5049924;28;20090;-55
2022/10/22 08:28:31;;;;;;;1.13;0.13;;;23.90;56.00;;;;;;5050082;28;20680;-55
2022/10/22 08:30:58;;;;;;;0.20;0.10;;;23.90;56.00;;;;;;5049509;28;20435;-54
2022/10/22 08:33:27;;;;;;;0.95;0.47;;;23.90;55.90;;;;;;5049458;28;20063;-54
2022/10/22 08:35:54;;;;;;;6.25;0.20;;;23.90;55.90;;;;;;5049688;28;20076;-55
2022/10/22 08:38:21;;;;;;;8.75;0.15;;;23.90;55.90;;;;;;5049421;28;20476;-51
2022/10/22 08:40:52;;;;;;;6.80;0.17;;;23.90;55.80;;;;;;5049716;28;20086;-54
2022/10/22 08:43:55;;;;;;;0.82;0.10;;;23.90;55.80;;;;;;5049579;28;20098;-55
2022/10/22 08:46:33;;;;;;;4.35;0.32;;;23.90;55.60;;;;;;5049324;28;20071;-54
2022/10/22 08:49:04;;;;;;;1.98;0.22;;;23.90;55.70;;;;;;5049223;28;20080;-52
2022/10/22 08:51:34;;;;;;;0.70;0.10;;;23.90;55.70;;;;;;5049681;28;20044;-52
2022/10/22 08:54:22;;;;;;;5.35;0.10;;;23.90;55.60;;;;;;5047971;28;20495;-52
2022/10/22 08:56:57;;;;;;;1.50;0.17;;;23.90;55.40;;;;;;5049414;28;20428;-53
2022/10/22 08:59:31;;;;;;;1.08;0.10;;;23.90;55.40;;;;;;5049065;28;20052;-54
2022/10/22 09:01:58;;;;;;;2.70;0.30;;;23.90;55.30;;;;;;5049365;28;20073;-54
2022/10/22 09:04:31;;;;;;;1.17;0.43;;;23.90;55.20;;;;;;5049165;28;20079;-56
2022/10/22 09:07:00;;;;;;;3.40;0.85;;;23.90;55.00;;;;;;5049133;28;20127;-54
2022/10/22 09:09:33;;;;;;;0.82;0.10;;;23.90;55.00;;;;;;5048741;28;20045;-52
2022/10/22 09:12:02;;;;;;;3.15;0.20;;;23.90;55.00;;;;;;5045880;28;20041;-54
2022/10/22 09:14:30;;;;;;;1.85;0.43;;;23.90;55.00;;;;;;5048769;28;20094;-54
2022/10/22 09:17:13;;;;;;;3.20;0.28;;;23.90;55.00;;;;;;5048843;28;20056;-53
2022/10/22 09:19:49;;;;;;;4.97;0.10;;;24.00;55.10;;;;;;5048995;28;20607;-54
2022/10/22 09:22:29;;;;;;;1.60;0.10;;;24.00;55.20;;;;;;5049013;28;20588;-53
2022/10/22 09:25:02;;;;;;;0.55;0.43;;;23.90;55.10;;;;;;5048732;28;20040;-56
2022/10/22 09:27:31;;;;;;;2.35;0.17;;;24.00;55.20;;;;;;5048746;28;20041;-52
2022/10/22 09:29:58;;;;;;;1.58;0.25;;;24.00;55.20;;;;;;5047400;28;20043;-49
2022/10/22 09:32:25;;;;;;;7.93;1.95;;;24.00;55.70;;;;;;5048879;28;20049;-52
2022/10/22 09:34:57;;;;;;;1.15;0.10;;;24.00;55.20;;;;;;5048637;28;20047;-54
2022/10/22 09:37:27;;;;;;;4.68;0.20;;;24.00;55.20;;;;;;5048489;28;20045;-61
2022/10/22 09:39:56;;;;;;;1.85;0.10;;;24.10;55.30;;;;;;5048312;28;20094;-54
2022/10/22 09:42:23;;;;;;;3.90;0.35;;;24.10;55.30;;;;;;5048101;28;20428;-54
2022/10/22 09:44:53;;;;;;;4.03;0.38;;;24.10;55.30;;;;;;5047854;28;20456;-53
2022/10/22 09:47:32;;;;;;;6.95;0.43;;;24.10;55.20;;;;;;5048115;28;20044;-52
2022/10/22 09:50:22;;;;;;;3.80;0.40;;;24.20;55.60;;;;;;5028358;28;20037;-55
2022/10/22 09:52:59;;;;;;;4.43;0.65;;;24.20;55.20;;;;;;5042478;28;20051;-55
2022/10/22 09:55:27;;;;;;;3.88;1.00;;;24.20;55.20;;;;;;5047736;28;20569;-55
2022/10/22 09:57:56;;;;;;;6.20;1.27;;;24.20;55.30;;;;;;5047804;28;20045;-54
2022/10/22 10:00:24;;;;;;;4.78;0.88;;;24.30;55.30;;;;;;5048088;28;20464;-56
2022/10/22 10:02:56;;;;;;;1.40;0.43;;;24.30;55.30;;;;;;5048104;28;20041;-55
2022/10/22 10:05:29;;;;;;;8.38;1.40;;;24.30;55.20;;;;;;5047674;28;20585;-55
2022/10/22 10:07:57;;;;;;;1.77;0.20;;;24.40;55.20;;;;;;5047451;28;20041;-53
2022/10/22 10:10:33;;;;;;;4.45;1.38;;;24.40;55.20;;;;;;5047506;28;20033;-52
2022/10/22 10:13:11;;;;;;;4.20;0.60;;;24.50;55.10;;;;;;5027565;28;20064;-53
2022/10/22 10:15:44;;;;;;;2.85;0.98;;;24.50;55.00;;;;;;5027811;28;20068;-55
2022/10/22 10:18:22;;;;;;;4.10;1.23;;;24.60;55.00;;;;;;5027816;28;20046;-56
2022/10/22 10:20:56;;;;;;;3.72;0.35;;;24.60;54.80;;;;;;5028001;28;20041;-56
2022/10/22 10:23:31;;;;;;;4.78;0.55;;;24.60;54.60;;;;;;5027688;28;20130;-53
2022/10/22 10:26:07;;;;;;;7.63;0.77;;;24.70;54.50;;;;;;5034506;28;20039;-56
2022/10/22 10:28:51;;;;;;;3.85;0.40;;;24.80;54.40;;;;;;5047888;28;20063;-52
2022/10/22 10:31:30;;;;;;;5.00;1.23;;;24.90;54.40;;;;;;5047860;28;20476;-55
2022/10/22 10:34:10;;;;;;;5.88;0.95;;;24.90;54.20;;;;;;5047672;28;20073;-55
2022/10/22 10:36:48;;;;;;;4.30;1.20;;;25.00;54.10;;;;;;5047683;28;20137;-55
2022/10/22 10:39:22;;;;;;;1.10;0.25;;;25.00;54.00;;;;;;5047513;28;20048;-54
2022/10/22 10:41:56;;;;;;;6.50;0.55;;;25.10;54.00;;;;;;5046979;28;20045;-56
2022/10/22 10:44:44;;;;;;;4.70;0.70;;;25.20;53.90;;;;;;5047282;28;20068;-56
2022/10/22 10:47:21;;;;;;;2.72;0.20;;;25.20;53.80;;;;;;5047715;28;20416;-56
2022/10/22 10:49:51;;;;;;;3.33;0.15;;;25.20;53.70;;;;;;5047502;28;20041;-54
2022/10/22 10:52:29;;;;;;;3.33;0.38;;;25.30;53.70;;;;;;5047335;28;20039;-54
2022/10/22 10:55:09;;;;;;;0.95;0.17;;;25.30;53.50;;;;;;5046616;28;20098;-54
2022/10/22 10:57:45;;;;;;;9.20;1.02;;;25.40;53.50;;;;;;5051468;28;20053;-52
2022/10/22 11:00:18;;;;;;;2.13;0.60;;;25.40;53.40;;;;;;5051441;28;20124;-55
2022/10/22 11:03:23;;;;;;;3.50;0.38;;;25.50;53.50;;;;;;5051614;28;20709;-55
2022/10/22 11:05:56;;;;;;;5.93;0.57;;;25.50;53.30;;;;;;5051536;28;20073;-54
2022/10/22 11:08:28;;;;;;;3.60;0.20;;;25.50;53.40;;;;;;5031331;28;20042;-54
2022/10/22 11:10:59;;;;;;;1.75;0.30;;;25.60;53.40;;;;;;5030923;28;20128;-58
2022/10/22 11:13:30;;;;;;;2.00;0.35;;;25.60;53.40;;;;;;5032561;28;20315;-55
2022/10/22 11:16:04;;;;;;;2.00;0.30;;;25.70;53.30;;;;;;5050694;28;20041;-55
2022/10/22 11:18:37;;;;;;;3.15;1.35;;;25.70;53.20;;;;;;5051230;28;20140;-52
2022/10/22 11:21:14;;;;;;;0.68;0.10;;;25.80;53.30;;;;;;5049676;28;20045;-53
2022/10/22 11:23:48;;;;;;;3.20;0.20;;;25.80;53.20;;;;;;5050674;28;20091;-55
2022/10/22 11:26:31;;;;;;;0.80;0.10;;;25.90;53.20;;;;;;5050913;28;20128;-55
2022/10/22 11:29:01;;;;;;;2.22;0.10;;;25.90;53.10;;;;;;5050774;28;20112;-53
2022/10/22 11:31:30;;;;;;;0.43;0.13;;;25.90;53.10;;;;;;5050888;28;20072;-51
2022/10/22 11:34:04;;;;;;;2.28;0.25;;;26.00;53.00;;;;;;5051114;28;20124;-56
2022/10/22 11:36:32;;;;;;;0.95;0.10;;;26.00;52.90;;;;;;5050932;28;20464;-53
2022/10/22 11:39:03;;;;;;;2.08;0.10;;;26.10;53.00;;;;;;5050130;28;20123;-56
2022/10/22 11:41:34;;;;;;;4.93;0.25;;;26.10;52.90;;;;;;5050656;28;20049;-54
2022/10/22 11:44:19;;;;;;;1.42;0.10;;;26.10;52.80;;;;;;5050393;28;20064;-55
2022/10/22 11:46:54;;;;;;;2.88;0.40;;;26.20;52.80;;;;;;5050702;28;20045;-56
2022/10/22 11:49:27;;;;;;;3.03;0.10;;;26.20;52.80;;;;;;5050654;28;20049;-55
2022/10/22 11:52:22;;;;;;;0.63;0.10;;;26.20;53.00;;;;;;5050477;28;20128;-54
2022/10/22 11:54:54;;;;;;;3.67;1.15;;;26.30;52.70;;;;;;5049811;28;20056;-55
2022/10/22 11:57:26;;;;;;;2.58;0.20;;;26.30;52.70;;;;;;5048912;28;20045;-54
2022/10/22 11:59:57;;;;;;;0.95;0.10;;;26.40;52.70;;;;;;5050409;28;20041;-54
2022/10/22 12:02:38;;;;;;;1.52;0.10;;;26.40;52.60;;;;;;5050282;28;20052;-54
2022/10/22 12:05:34;;;;;;;1.05;0.10;;;26.40;52.50;;;;;;5050327;28;20044;-55
2022/10/22 12:08:14;;;;;;;0.70;0.65;;;26.50;52.40;;;;;;5049140;28;20045;-55
2022/10/22 12:10:57;;;;;;;5.22;0.10;;;26.50;52.40;;;;;;5050261;28;20131;-54
2022/10/22 12:13:26;;;;;;;1.30;0.32;;;26.50;52.40;;;;;;5050105;28;20041;-55
2022/10/22 12:15:56;;;;;;;1.05;0.20;;;26.50;52.30;;;;;;5050277;28;20029;-54
2022/10/22 12:18:25;;;;;;;4.47;0.40;;;26.60;52.30;;;;;;5050085;28;20053;-55
2022/10/22 12:20:53;;;;;;;1.98;0.10;;;26.60;52.20;;;;;;5049822;28;20051;-55
2022/10/22 12:23:26;;;;;;;1.48;0.10;;;26.60;52.10;;;;;;5049412;28;20497;-56
2022/10/22 12:25:54;;;;;;;4.82;0.17;;;26.70;52.00;;;;;;5050051;28;20575;-53
2022/10/22 12:28:21;;;;;;;0.73;0.30;;;26.70;51.90;;;;;;5049777;28;20045;-53
2022/10/22 12:30:48;;;;;;;2.63;0.10;;;26.70;51.90;;;;;;5049913;28;20047;-56
2022/10/22 12:33:20;;;;;;;2.38;0.57;;;26.70;51.80;;;;;;5049684;28;20041;-52
2022/10/22 12:35:51;;;;;;;1.38;0.35;;;26.70;51.70;;;;;;5049797;28;20045;-51
2022/10/22 12:38:21;;;;;;;1.52;0.10;;;26.80;51.70;;;;;;5029279;28;20604;-55
2022/10/22 12:40:49;;;;;;;2.05;0.20;;;26.80;51.70;;;;;;5045318;28;20045;-54
2022/10/22 12:43:19;;;;;;;2.28;0.55;;;26.80;51.60;;;;;;5049442;28;20047;-55
2022/10/22 12:45:49;;;;;;;0.28;0.28;;;26.80;51.50;;;;;;5049469;28;20045;-56
2022/10/22 12:48:19;;;;;;;2.95;0.40;;;26.90;51.50;;;;;;5049341;28;20051;-55
2022/10/22 12:50:50;;;;;;;0.73;0.10;;;26.90;51.50;;;;;;5049147;28;20838;-53
2022/10/22 12:53:20;;;;;;;1.52;0.10;;;26.90;51.40;;;;;;5049439;28;20055;-56
2022/10/22 12:55:51;;;;;;;1.38;0.40;;;27.00;51.40;;;;;;5049276;28;20531;-55
2022/10/22 12:58:22;;;;;;;0.15;0.00;;;27.00;51.30;;;;;;5049095;28;20117;-55
2022/10/22 13:00:56;;;;;;;0.82;0.00;;;27.00;51.20;;;;;;5049352;28;20047;-55
2022/10/22 13:03:29;;;;;;;0.40;0.00;;;27.10;51.20;;;;;;5049155;28;20041;-56
2022/10/22 13:05:56;;;;;;;1.88;0.10;;;27.10;51.10;;;;;;5049033;28;20514;-55